Time;durP1;ratioP1;P1;durP2;ratioP2;P2;SDS_P1;SDS_P2;PMS_P1;PMS_P2;Temp;Humidity;BMP_temperature;BMP_pressure;BME280_temperature;BME280_humidity;BME280_pressure;Samples;Min_cycle;Max_cycle;Signal;HPM_P1;HPM_P2
2021/08/09 00:01:43;;;;;;;9.35;3.58;;;25.60;58.20;;;;;;21167627;28;20070;-70
2021/08/09 00:11:45;;;;;;;6.88;3.70;;;25.40;58.50;;;;;;21165663;28;20488;-71
2021/08/09 00:21:47;;;;;;;6.65;3.30;;;25.40;58.90;;;;;;21126824;28;20063;-71
2021/08/09 00:31:48;;;;;;;5.75;2.78;;;25.30;59.80;;;;;;21080377;28;20056;-71
2021/08/09 00:41:50;;;;;;;9.13;4.03;;;25.20;60.10;;;;;;21081829;28;20067;-70
2021/08/09 00:51:55;;;;;;;;;;;25.10;60.80;;;;;;21080129;28;20100;-70
2021/08/09 01:01:56;;;;;;;9.77;3.95;;;24.80;60.70;;;;;;21078774;28;20273;-71
2021/08/09 01:12:11;;;;;;;6.82;3.50;;;24.90;61.10;;;;;;21085977;28;20109;-71
2021/08/09 01:22:50;;;;;;;8.48;3.42;;;25.00;61.10;;;;;;21096474;28;20048;-70
2021/08/09 01:32:53;;;;;;;7.13;3.60;;;24.90;61.70;;;;;;21076970;28;20362;-71
2021/08/09 01:42:56;;;;;;;7.72;4.03;;;24.70;62.40;;;;;;21093670;28;20400;-68
2021/08/09 01:52:58;;;;;;;8.35;4.38;;;24.60;62.80;;;;;;21093107;28;20043;-70
2021/08/09 02:03:00;;;;;;;9.77;5.70;;;24.60;63.10;;;;;;21092880;28;20495;-70
2021/08/09 02:13:26;;;;;;;10.30;4.63;;;24.50;63.70;;;;;;21093413;28;20436;-66
2021/08/09 02:23:51;;;;;;;9.38;4.07;;;24.60;63.60;;;;;;21115678;28;20512;-68
2021/08/09 02:33:54;;;;;;;8.77;4.03;;;24.50;63.90;;;;;;21130069;28;20143;-70
2021/08/09 02:43:55;;;;;;;10.65;3.97;;;24.30;64.70;;;;;;21089881;28;20438;-70
2021/08/09 02:53:57;;;;;;;;;;;24.30;65.00;;;;;;21090145;28;20044;-72
2021/08/09 03:04:00;;;;;;;11.80;4.32;;;24.10;65.10;;;;;;21087970;28;19920;-69
2021/08/09 03:14:25;;;;;;;11.02;5.00;;;24.20;65.30;;;;;;21088225;28;20051;-68
2021/08/09 03:24:29;;;;;;;8.77;4.10;;;24.20;65.50;;;;;;21125317;28;20048;-67
2021/08/09 03:34:37;;;;;;;9.77;4.07;;;24.20;65.40;;;;;;21117840;28;20070;-70
2021/08/09 03:44:47;;;;;;;11.80;4.03;;;24.20;65.60;;;;;;21085561;28;20087;-71
2021/08/09 03:54:54;;;;;;;9.02;3.85;;;24.10;66.00;;;;;;21083529;28;20048;-71
2021/08/09 04:04:58;;;;;;;10.35;4.32;;;24.10;66.20;;;;;;21083151;28;20121;-71
2021/08/09 04:15:06;;;;;;;11.27;5.25;;;24.20;66.00;;;;;;21082328;28;20451;-70
2021/08/09 04:25:11;;;;;;;10.18;3.53;;;24.20;66.10;;;;;;21113299;27;20451;-71
2021/08/09 04:35:14;;;;;;;10.07;4.20;;;24.20;65.90;;;;;;21080444;28;20079;-69
2021/08/09 04:45:18;;;;;;;14.20;4.63;;;24.20;65.80;;;;;;21080339;28;20131;-70
2021/08/09 04:55:26;;;;;;;10.23;4.32;;;24.10;66.10;;;;;;21081197;28;20051;-72
2021/08/09 05:05:29;;;;;;;8.32;4.03;;;24.20;65.80;;;;;;21081785;28;20568;-70
2021/08/09 05:15:33;;;;;;;10.50;4.40;;;24.30;65.50;;;;;;21097247;28;20055;-71
2021/08/09 05:25:35;;;;;;;9.05;4.07;;;24.20;65.20;;;;;;21096758;28;20095;-69
2021/08/09 05:35:38;;;;;;;8.48;3.72;;;24.20;65.40;;;;;;21097423;28;20055;-68
2021/08/09 05:45:41;;;;;;;9.10;3.78;;;24.30;65.10;;;;;;21093885;28;20051;-69
2021/08/09 05:55:44;;;;;;;12.10;4.20;;;24.30;65.10;;;;;;21092950;28;20070;-70
2021/08/09 06:05:46;;;;;;;8.98;3.92;;;24.30;64.70;;;;;;21091641;28;20484;-68
2021/08/09 06:15:49;;;;;;;11.25;4.78;;;24.30;64.90;;;;;;21093906;28;20076;-67
2021/08/09 06:25:51;;;;;;;13.55;5.05;;;24.40;64.50;;;;;;21090962;28;20408;-66
2021/08/09 06:35:54;;;;;;;9.43;4.00;;;24.40;64.20;;;;;;21092367;28;20144;-71
2021/08/09 06:45:57;;;;;;;10.00;4.10;;;24.50;64.20;;;;;;21151046;28;20073;-69
2021/08/09 06:55:59;;;;;;;11.85;5.18;;;24.60;63.90;;;;;;21175779;28;20052;-69
2021/08/09 07:06:02;;;;;;;11.40;4.25;;;24.60;64.00;;;;;;21172079;28;20056;-66
2021/08/09 07:16:06;;;;;;;12.05;4.30;;;24.80;63.20;;;;;;21173433;28;20051;-65
2021/08/09 07:26:08;;;;;;;;;;;25.00;62.30;;;;;;21170333;28;20066;-70
2021/08/09 07:36:10;;;;;;;9.02;3.70;;;25.10;61.70;;;;;;21168580;28;19927;-69
2021/08/09 07:46:13;;;;;;;10.68;5.68;;;25.50;60.70;;;;;;21171576;28;20181;-68
2021/08/09 07:56:15;;;;;;;9.73;3.50;;;26.00;59.00;;;;;;21168329;28;20476;-72
2021/08/09 08:06:18;;;;;;;7.07;3.58;;;26.20;58.00;;;;;;21167467;28;20048;-66
2021/08/09 08:16:20;;;;;;;9.88;3.88;;;26.30;57.00;;;;;;21165341;28;20051;-70
2021/08/09 08:26:25;;;;;;;8.27;3.40;;;26.60;55.80;;;;;;21171597;28;20130;-71
2021/08/09 08:36:27;;;;;;;9.10;3.63;;;27.10;54.50;;;;;;21187328;28;20056;-72
2021/08/09 08:46:30;;;;;;;13.85;3.97;;;27.70;52.40;;;;;;21174085;28;20537;-72
2021/08/09 08:56:36;;;;;;;9.63;4.03;;;27.90;51.80;;;;;;21167068;28;20056;-71
2021/08/09 09:06:43;;;;;;;10.38;4.15;;;28.20;50.20;;;;;;21164002;28;20482;-67
2021/08/09 09:16:48;;;;;;;10.70;3.55;;;28.50;49.00;;;;;;21162177;28;20184;-66
2021/08/09 09:26:56;;;;;;;10.18;3.67;;;28.60;48.20;;;;;;21162355;28;20052;-66
2021/08/09 09:36:59;;;;;;;7.67;4.00;;;29.00;47.90;;;;;;21161171;28;20135;-69
2021/08/09 09:47:28;;;;;;;9.15;4.05;;;28.90;47.80;;;;;;21162403;28;20187;-67
2021/08/09 09:57:29;;;;;;;8.07;2.70;;;29.20;47.00;;;;;;21170888;28;20047;-62
2021/08/09 10:07:33;;;;;;;7.03;3.50;;;29.20;45.30;;;;;;21173764;28;20070;-62
2021/08/09 10:17:37;;;;;;;10.77;3.78;;;29.40;45.20;;;;;;21168454;28;20044;-59
2021/08/09 10:27:47;;;;;;;11.32;3.40;;;29.60;44.60;;;;;;21145816;28;20420;-62
2021/08/09 10:38:18;;;;;;;7.00;3.80;;;29.80;43.60;;;;;;21069209;28;20071;-67
2021/08/09 10:48:52;;;;;;;10.98;3.00;;;29.60;42.20;;;;;;21090133;28;20048;-66
2021/08/09 10:58:57;;;;;;;10.05;2.90;;;30.10;40.20;;;;;;20668101;28;20133;-66
2021/08/09 11:08:58;;;;;;;6.63;2.92;;;30.20;39.60;;;;;;20665855;28;20046;-70
2021/08/09 11:18:59;;;;;;;7.25;2.65;;;30.50;37.50;;;;;;20665649;28;20125;-67
2021/08/09 11:29:06;;;;;;;5.93;2.58;;;30.50;37.80;;;;;;20816736;28;20078;-72
2021/08/09 11:39:08;;;;;;;7.97;2.40;;;30.70;35.30;;;;;;21109999;28;20059;-66
2021/08/09 11:49:09;;;;;;;9.90;5.88;;;30.90;34.60;;;;;;21095319;28;20405;-68
2021/08/09 11:59:12;;;;;;;5.70;2.40;;;31.10;33.80;;;;;;21086968;28;20044;-68
2021/08/09 12:09:16;;;;;;;19.50;2.75;;;31.20;32.70;;;;;;21085894;28;20507;-67
2021/08/09 12:19:20;;;;;;;5.00;2.05;;;31.50;30.20;;;;;;21082754;28;20055;-71
2021/08/09 12:29:23;;;;;;;6.35;3.10;;;31.70;30.00;;;;;;21104406;28;20093;-71
2021/08/09 12:39:33;;;;;;;5.60;2.85;;;31.80;30.20;;;;;;21165156;28;20048;-66
2021/08/09 12:49:35;;;;;;;10.32;6.50;;;31.80;30.60;;;;;;21145482;28;20073;-68
2021/08/09 12:59:39;;;;;;;6.40;2.60;;;32.00;30.50;;;;;;21145680;28;20040;-68
2021/08/09 13:09:41;;;;;;;7.45;2.20;;;32.10;30.30;;;;;;21163662;28;20052;-67
2021/08/09 13:19:43;;;;;;;6.00;2.40;;;32.10;29.90;;;;;;21145156;28;20050;-68
2021/08/09 13:29:46;;;;;;;4.60;1.80;;;32.30;29.40;;;;;;21166085;28;20051;-66
2021/08/09 13:39:48;;;;;;;6.75;1.80;;;32.60;28.10;;;;;;21178406;28;20531;-66
2021/08/09 13:49:52;;;;;;;4.70;1.90;;;32.60;27.80;;;;;;21177551;28;20063;-68
2021/08/09 13:59:54;;;;;;;7.95;3.35;;;32.60;27.40;;;;;;21177175;28;20050;-67
2021/08/09 14:09:56;;;;;;;6.43;1.73;;;32.70;27.10;;;;;;21177201;28;20098;-68
2021/08/09 14:19:59;;;;;;;5.78;2.78;;;33.00;26.10;;;;;;21176099;28;20108;-66
2021/08/09 14:30:02;;;;;;;4.40;1.60;;;32.90;26.80;;;;;;21175724;28;20185;-67
2021/08/09 14:40:05;;;;;;;8.55;1.90;;;33.00;26.10;;;;;;21175887;28;20051;-69
2021/08/09 14:50:09;;;;;;;6.18;1.95;;;33.20;25.10;;;;;;21173729;28;20051;-69
2021/08/09 15:00:11;;;;;;;5.05;2.50;;;33.30;25.30;;;;;;21158464;28;20093;-74
2021/08/09 15:10:14;;;;;;;4.85;1.83;;;33.40;25.70;;;;;;21176370;28;20052;-68
2021/08/09 15:20:16;;;;;;;14.45;11.98;;;33.50;25.20;;;;;;21181982;28;20047;-70
2021/08/09 15:30:18;;;;;;;5.30;2.00;;;33.40;25.70;;;;;;21183858;28;20058;-73
2021/08/09 15:40:20;;;;;;;7.22;2.75;;;33.70;24.80;;;;;;21176915;28;20047;-72
2021/08/09 15:50:22;;;;;;;6.88;2.88;;;33.70;25.50;;;;;;21179139;28;20259;-74
2021/08/09 16:00:24;;;;;;;3.58;1.65;;;33.70;24.90;;;;;;21178062;28;20040;-74
2021/08/09 16:10:26;;;;;;;3.38;1.80;;;33.80;24.80;;;;;;21170536;28;20059;-73
2021/08/09 16:20:29;;;;;;;7.95;2.92;;;33.60;24.50;;;;;;21150316;28;20044;-72
2021/08/09 16:30:32;;;;;;;7.22;3.50;;;33.60;24.10;;;;;;21164975;28;20496;-72
2021/08/09 16:40:37;;;;;;;6.22;2.20;;;33.60;24.30;;;;;;21165372;28;20047;-71
2021/08/09 16:50:38;;;;;;;5.88;2.70;;;33.70;24.00;;;;;;21163440;28;20043;-70
2021/08/09 17:00:42;;;;;;;6.38;1.70;;;33.50;24.40;;;;;;21164218;28;20495;-69
2021/08/09 17:10:43;;;;;;;5.25;2.45;;;33.60;24.40;;;;;;21161770;28;20051;-71
2021/08/09 17:20:45;;;;;;;8.27;2.15;;;33.60;24.40;;;;;;21162991;28;20048;-73
2021/08/09 17:30:48;;;;;;;4.05;2.00;;;33.60;24.60;;;;;;21161167;28;20108;-72
2021/08/09 17:40:50;;;;;;;8.38;3.72;;;33.40;24.70;;;;;;21161846;28;20043;-70
2021/08/09 17:50:53;;;;;;;5.53;2.47;;;33.40;25.10;;;;;;21161534;28;20420;-73
2021/08/09 18:00:56;;;;;;;6.15;3.05;;;33.20;25.20;;;;;;21162086;28;20047;-71
2021/08/09 18:10:57;;;;;;;8.23;4.45;;;33.10;26.10;;;;;;21161842;28;20112;-69
2021/08/09 18:20:59;;;;;;;6.75;2.10;;;33.00;26.30;;;;;;21153887;28;20051;-68
2021/08/09 18:31:01;;;;;;;5.78;2.15;;;32.80;25.50;;;;;;21174551;28;20431;-71
2021/08/09 18:41:05;;;;;;;6.72;2.47;;;32.80;25.80;;;;;;21174234;28;20044;-65
2021/08/09 18:51:09;;;;;;;5.95;2.20;;;32.60;26.00;;;;;;21173452;28;20047;-67
2021/08/09 19:01:10;;;;;;;4.40;2.25;;;32.40;26.10;;;;;;21175111;28;20040;-66
2021/08/09 19:11:13;;;;;;;4.50;2.05;;;32.20;26.30;;;;;;21172627;28;20043;-66
2021/08/09 19:21:16;;;;;;;6.55;2.78;;;32.00;26.50;;;;;;21156150;28;20131;-67
2021/08/09 19:31:18;;;;;;;7.57;3.63;;;31.80;27.20;;;;;;21179231;28;20066;-70
2021/08/09 19:41:20;;;;;;;8.48;4.10;;;31.50;27.70;;;;;;21174986;28;20048;-68
2021/08/09 19:51:23;;;;;;;6.03;3.35;;;31.40;28.10;;;;;;21168610;28;20083;-69
2021/08/09 20:01:25;;;;;;;7.30;4.57;;;31.20;28.20;;;;;;21177641;28;20051;-68
2021/08/09 20:11:26;;;;;;;7.68;4.15;;;31.10;28.60;;;;;;21177152;28;20109;-70
2021/08/09 20:21:29;;;;;;;9.75;4.18;;;30.80;29.50;;;;;;21168960;28;20056;-72
2021/08/09 20:31:32;;;;;;;11.35;4.40;;;30.70;29.80;;;;;;21164658;28;20551;-70
2021/08/09 20:41:35;;;;;;;11.75;5.07;;;30.60;29.80;;;;;;21165253;28;20048;-67
2021/08/09 20:51:40;;;;;;;10.52;3.72;;;30.60;31.10;;;;;;21163821;28;20445;-69
2021/08/09 21:01:41;;;;;;;16.48;3.72;;;30.60;33.50;;;;;;21164292;28;20051;-63
2021/08/09 21:11:44;;;;;;;10.38;3.88;;;30.50;34.90;;;;;;21162870;28;20057;-66
2021/08/09 21:21:46;;;;;;;11.18;2.97;;;30.40;35.50;;;;;;21162609;28;20051;-64
2021/08/09 21:31:47;;;;;;;6.43;2.92;;;30.20;36.40;;;;;;21162718;28;20059;-66
2021/08/09 21:41:48;;;;;;;6.82;2.92;;;30.10;37.00;;;;;;21162402;28;20498;-71
2021/08/09 21:51:50;;;;;;;6.28;2.58;;;30.00;37.60;;;;;;21167419;28;20516;-67
2021/08/09 22:01:52;;;;;;;8.68;3.30;;;30.00;38.00;;;;;;21176797;28;20039;-67
2021/08/09 22:11:54;;;;;;;8.68;3.15;;;29.90;38.40;;;;;;21176975;28;20051;-67
2021/08/09 22:21:55;;;;;;;7.28;4.38;;;29.80;38.90;;;;;;21176501;28;20097;-67
2021/08/09 22:31:57;;;;;;;6.45;3.58;;;29.70;39.00;;;;;;21174894;28;20063;-65
2021/08/09 22:41:59;;;;;;;6.43;4.00;;;29.60;39.40;;;;;;21174718;28;20076;-66
2021/08/09 22:52:01;;;;;;;6.75;3.25;;;29.50;39.80;;;;;;21174045;28;20411;-67
2021/08/09 23:02:06;;;;;;;8.30;2.90;;;29.50;40.00;;;;;;21173195;28;20139;-67
2021/08/09 23:12:08;;;;;;;6.00;2.90;;;29.30;40.60;;;;;;21173494;28;20453;-70
2021/08/09 23:22:10;;;;;;;5.88;2.92;;;29.20;41.20;;;;;;21153749;28;20043;-66
2021/08/09 23:32:12;;;;;;;6.65;2.47;;;29.20;41.40;;;;;;21169438;28;20110;-68
2021/08/09 23:42:15;;;;;;;7.75;2.70;;;29.10;41.70;;;;;;21169504;28;20043;-67
2021/08/09 23:52:16;;;;;;;5.50;2.70;;;29.00;42.30;;;;;;21151985;28;20048;-66
